sensor_id;sensor_type;location;lat;lon;timestamp;temperature;humidity
4602;DHT22;2313;48.552;9.370;2022-12-20T00:00:03;3.00;99.90
4602;DHT22;2313;48.552;9.370;2022-12-20T00:02:29;2.90;99.90
4602;DHT22;2313;48.552;9.370;2022-12-20T00:04:55;3.00;99.90
4602;DHT22;2313;48.552;9.370;2022-12-20T00:07:20;3.00;99.90
4602;DHT22;2313;48.552;9.370;2022-12-20T00:09:46;2.90;99.90
4602;DHT22;2313;48.552;9.370;2022-12-20T00:12:11;2.90;99.90
4602;DHT22;2313;48.552;9.370;2022-12-20T00:14:37;2.80;99.90
4602;DHT22;2313;48.552;9.370;2022-12-20T00:17:03;2.80;99.90
4602;DHT22;2313;48.552;9.370;2022-12-20T00:19:28;2.90;99.90
4602;DHT22;2313;48.552;9.370;2022-12-20T00:21:54;2.80;99.90
4602;DHT22;2313;48.552;9.370;2022-12-20T00:24:19;2.90;99.90
4602;DHT22;2313;48.552;9.370;2022-12-20T00:26:45;2.80;99.90
4602;DHT22;2313;48.552;9.370;2022-12-20T00:29:10;2.80;99.90
4602;DHT22;2313;48.552;9.370;2022-12-20T00:31:36;2.80;99.90
4602;DHT22;2313;48.552;9.370;2022-12-20T00:34:02;2.80;99.90
4602;DHT22;2313;48.552;9.370;2022-12-20T00:36:30;2.70;99.90
4602;DHT22;2313;48.552;9.370;2022-12-20T00:38:57;2.80;99.90
4602;DHT22;2313;48.552;9.370;2022-12-20T00:41:24;2.80;99.90
4602;DHT22;2313;48.552;9.370;2022-12-20T00:43:50;2.70;99.90
4602;DHT22;2313;48.552;9.370;2022-12-20T00:46:17;2.80;99.90
4602;DHT22;2313;48.552;9.370;2022-12-20T00:48:44;2.80;99.90
4602;DHT22;2313;48.552;9.370;2022-12-20T00:51:13;2.80;99.90
4602;DHT22;2313;48.552;9.370;2022-12-20T00:53:39;2.80;99.90
4602;DHT22;2313;48.552;9.370;2022-12-20T00:56:06;2.80;99.90
4602;DHT22;2313;48.552;9.370;2022-12-20T00:58:33;2.80;99.90
4602;DHT22;2313;48.552;9.370;2022-12-20T01:00:59;2.80;99.90
4602;DHT22;2313;48.552;9.370;2022-12-20T01:03:26;2.80;99.90
4602;DHT22;2313;48.552;9.370;2022-12-20T01:05:56;2.80;99.90
4602;DHT22;2313;48.552;9.370;2022-12-20T01:08:23;2.90;99.90
4602;DHT22;2313;48.552;9.370;2022-12-20T01:11:11;3.00;99.90
4602;DHT22;2313;48.552;9.370;2022-12-20T01:13:39;2.80;99.90
4602;DHT22;2313;48.552;9.370;2022-12-20T01:16:18;2.80;99.90
4602;DHT22;2313;48.552;9.370;2022-12-20T01:18:44;2.80;99.90
4602;DHT22;2313;48.552;9.370;2022-12-20T01:21:12;2.80;99.90
4602;DHT22;2313;48.552;9.370;2022-12-20T01:23:38;2.90;99.90
4602;DHT22;2313;48.552;9.370;2022-12-20T01:26:06;2.90;99.90
4602;DHT22;2313;48.552;9.370;2022-12-20T01:28:36;2.90;99.90
4602;DHT22;2313;48.552;9.370;2022-12-20T01:31:06;2.90;99.90
4602;DHT22;2313;48.552;9.370;2022-12-20T01:33:32;3.00;99.90
4602;DHT22;2313;48.552;9.370;2022-12-20T01:36:03;3.00;99.90
4602;DHT22;2313;48.552;9.370;2022-12-20T01:38:29;2.90;99.90
4602;DHT22;2313;48.552;9.370;2022-12-20T01:40:55;3.00;99.90
4602;DHT22;2313;48.552;9.370;2022-12-20T01:43:28;3.00;99.90
4602;DHT22;2313;48.552;9.370;2022-12-20T01:46:09;3.00;99.90
4602;DHT22;2313;48.552;9.370;2022-12-20T01:48:35;3.10;99.90
4602;DHT22;2313;48.552;9.370;2022-12-20T01:51:00;3.10;99.90
4602;DHT22;2313;48.552;9.370;2022-12-20T01:53:26;3.10;99.90
4602;DHT22;2313;48.552;9.370;2022-12-20T01:55:52;3.10;99.90
4602;DHT22;2313;48.552;9.370;2022-12-20T01:58:21;3.20;99.90
4602;DHT22;2313;48.552;9.370;2022-12-20T02:00:47;3.20;99.90
4602;DHT22;2313;48.552;9.370;2022-12-20T02:03:14;3.30;99.90
4602;DHT22;2313;48.552;9.370;2022-12-20T02:05:43;3.30;99.90
4602;DHT22;2313;48.552;9.370;2022-12-20T02:08:14;3.30;99.90
4602;DHT22;2313;48.552;9.370;2022-12-20T02:16:45;3.80;99.90
4602;DHT22;2313;48.552;9.370;2022-12-20T02:19:49;4.60;99.90
4602;DHT22;2313;48.552;9.370;2022-12-20T02:22:37;5.30;99.90
4602;DHT22;2313;48.552;9.370;2022-12-20T02:25:43;5.60;99.90
4602;DHT22;2313;48.552;9.370;2022-12-20T02:31:00;6.20;99.90
4602;DHT22;2313;48.552;9.370;2022-12-20T02:33:26;6.50;99.90
4602;DHT22;2313;48.552;9.370;2022-12-20T02:35:53;6.80;99.90
4602;DHT22;2313;48.552;9.370;2022-12-20T02:40:58;6.70;99.90
4602;DHT22;2313;48.552;9.370;2022-12-20T02:43:26;6.70;99.90
4602;DHT22;2313;48.552;9.370;2022-12-20T02:46:18;6.90;99.90
4602;DHT22;2313;48.552;9.370;2022-12-20T02:48:46;6.90;99.90
4602;DHT22;2313;48.552;9.370;2022-12-20T02:51:13;6.90;99.90
4602;DHT22;2313;48.552;9.370;2022-12-20T02:53:40;7.10;99.90
4602;DHT22;2313;48.552;9.370;2022-12-20T02:59:00;7.20;99.90
4602;DHT22;2313;48.552;9.370;2022-12-20T03:01:31;7.20;99.90
4602;DHT22;2313;48.552;9.370;2022-12-20T03:03:58;7.40;99.90
4602;DHT22;2313;48.552;9.370;2022-12-20T03:06:25;7.40;99.90
4602;DHT22;2313;48.552;9.370;2022-12-20T03:08:50;7.50;99.90
4602;DHT22;2313;48.552;9.370;2022-12-20T03:11:16;7.50;99.90
4602;DHT22;2313;48.552;9.370;2022-12-20T03:13:42;7.40;99.90
4602;DHT22;2313;48.552;9.370;2022-12-20T03:16:08;6.90;99.90
4602;DHT22;2313;48.552;9.370;2022-12-20T03:18:35;6.20;99.90
4602;DHT22;2313;48.552;9.370;2022-12-20T03:21:00;5.60;99.90
4602;DHT22;2313;48.552;9.370;2022-12-20T03:23:26;5.20;99.90
4602;DHT22;2313;48.552;9.370;2022-12-20T03:25:52;4.90;99.90
4602;DHT22;2313;48.552;9.370;2022-12-20T03:28:17;4.70;99.90
4602;DHT22;2313;48.552;9.370;2022-12-20T03:30:43;4.70;99.90
4602;DHT22;2313;48.552;9.370;2022-12-20T03:33:10;4.80;99.90
4602;DHT22;2313;48.552;9.370;2022-12-20T03:35:36;5.50;99.90
4602;DHT22;2313;48.552;9.370;2022-12-20T03:38:01;6.00;99.90
4602;DHT22;2313;48.552;9.370;2022-12-20T03:40:27;6.90;99.90
4602;DHT22;2313;48.552;9.370;2022-12-20T03:42:52;7.50;99.90
4602;DHT22;2313;48.552;9.370;2022-12-20T03:45:18;8.10;99.90
4602;DHT22;2313;48.552;9.370;2022-12-20T03:47:43;8.20;99.90
4602;DHT22;2313;48.552;9.370;2022-12-20T03:50:10;8.30;99.90
4602;DHT22;2313;48.552;9.370;2022-12-20T03:52:36;8.40;99.90
4602;DHT22;2313;48.552;9.370;2022-12-20T03:55:03;8.40;99.90
4602;DHT22;2313;48.552;9.370;2022-12-20T03:57:29;8.50;99.90
4602;DHT22;2313;48.552;9.370;2022-12-20T03:59:54;8.60;99.90
4602;DHT22;2313;48.552;9.370;2022-12-20T04:02:20;8.60;99.90
4602;DHT22;2313;48.552;9.370;2022-12-20T04:04:47;8.70;99.90
4602;DHT22;2313;48.552;9.370;2022-12-20T04:07:12;8.50;99.90
4602;DHT22;2313;48.552;9.370;2022-12-20T04:09:38;8.60;99.90
4602;DHT22;2313;48.552;9.370;2022-12-20T04:12:04;8.90;99.90
4602;DHT22;2313;48.552;9.370;2022-12-20T04:14:30;8.90;99.90
4602;DHT22;2313;48.552;9.370;2022-12-20T04:16:56;9.00;99.90
4602;DHT22;2313;48.552;9.370;2022-12-20T04:19:21;8.50;99.90
4602;DHT22;2313;48.552;9.370;2022-12-20T04:21:47;8.10;99.90
4602;DHT22;2313;48.552;9.370;2022-12-20T04:24:13;7.30;99.90
4602;DHT22;2313;48.552;9.370;2022-12-20T04:26:38;6.80;99.90
4602;DHT22;2313;48.552;9.370;2022-12-20T04:29:04;6.30;99.90
4602;DHT22;2313;48.552;9.370;2022-12-20T04:31:29;6.20;99.90
4602;DHT22;2313;48.552;9.370;2022-12-20T04:33:55;5.90;99.90
4602;DHT22;2313;48.552;9.370;2022-12-20T04:36:21;5.50;99.90
4602;DHT22;2313;48.552;9.370;2022-12-20T04:38:47;5.30;99.90
4602;DHT22;2313;48.552;9.370;2022-12-20T04:41:12;5.70;99.90
4602;DHT22;2313;48.552;9.370;2022-12-20T04:43:48;7.30;99.90
4602;DHT22;2313;48.552;9.370;2022-12-20T04:46:14;7.90;99.90
4602;DHT22;2313;48.552;9.370;2022-12-20T04:48:39;8.20;99.90
4602;DHT22;2313;48.552;9.370;2022-12-20T04:51:05;8.50;99.90
4602;DHT22;2313;48.552;9.370;2022-12-20T04:53:30;8.60;99.90
4602;DHT22;2313;48.552;9.370;2022-12-20T04:56:26;8.70;99.90
4602;DHT22;2313;48.552;9.370;2022-12-20T04:58:54;8.80;99.90
4602;DHT22;2313;48.552;9.370;2022-12-20T05:01:20;8.80;99.90
4602;DHT22;2313;48.552;9.370;2022-12-20T05:03:47;8.80;99.90
4602;DHT22;2313;48.552;9.370;2022-12-20T05:06:13;8.70;99.90
4602;DHT22;2313;48.552;9.370;2022-12-20T05:08:39;8.60;99.90
4602;DHT22;2313;48.552;9.370;2022-12-20T05:11:05;8.40;99.90
4602;DHT22;2313;48.552;9.370;2022-12-20T05:13:31;8.20;99.90
4602;DHT22;2313;48.552;9.370;2022-12-20T05:15:57;8.30;99.90
4602;DHT22;2313;48.552;9.370;2022-12-20T05:18:24;8.20;99.90
4602;DHT22;2313;48.552;9.370;2022-12-20T05:20:50;7.50;99.90
4602;DHT22;2313;48.552;9.370;2022-12-20T05:23:38;7.40;99.90
4602;DHT22;2313;48.552;9.370;2022-12-20T05:26:23;7.00;99.90
4602;DHT22;2313;48.552;9.370;2022-12-20T05:28:49;6.50;99.90
4602;DHT22;2313;48.552;9.370;2022-12-20T05:31:15;5.80;99.90
4602;DHT22;2313;48.552;9.370;2022-12-20T05:33:40;5.30;99.90
4602;DHT22;2313;48.552;9.370;2022-12-20T05:36:06;5.00;99.90
4602;DHT22;2313;48.552;9.370;2022-12-20T05:38:32;4.80;99.90
4602;DHT22;2313;48.552;9.370;2022-12-20T05:40:57;5.80;99.90
4602;DHT22;2313;48.552;9.370;2022-12-20T05:43:23;6.70;99.90
4602;DHT22;2313;48.552;9.370;2022-12-20T05:45:51;7.50;99.90
4602;DHT22;2313;48.552;9.370;2022-12-20T05:48:18;7.80;99.90
4602;DHT22;2313;48.552;9.370;2022-12-20T05:50:45;8.10;99.90
4602;DHT22;2313;48.552;9.370;2022-12-20T05:53:15;8.20;99.90
4602;DHT22;2313;48.552;9.370;2022-12-20T05:55:49;8.30;99.90
4602;DHT22;2313;48.552;9.370;2022-12-20T05:58:15;8.40;99.90
4602;DHT22;2313;48.552;9.370;2022-12-20T06:00:41;8.50;99.90
4602;DHT22;2313;48.552;9.370;2022-12-20T06:03:08;8.60;99.90
4602;DHT22;2313;48.552;9.370;2022-12-20T06:05:36;8.60;99.90
4602;DHT22;2313;48.552;9.370;2022-12-20T06:08:03;8.60;99.90
4602;DHT22;2313;48.552;9.370;2022-12-20T06:10:30;8.70;99.90
4602;DHT22;2313;48.552;9.370;2022-12-20T06:12:55;8.60;99.90
4602;DHT22;2313;48.552;9.370;2022-12-20T06:15:21;8.60;99.90
4602;DHT22;2313;48.552;9.370;2022-12-20T06:17:46;8.50;99.90
4602;DHT22;2313;48.552;9.370;2022-12-20T06:20:12;8.50;99.90
4602;DHT22;2313;48.552;9.370;2022-12-20T06:22:37;8.50;99.90
4602;DHT22;2313;48.552;9.370;2022-12-20T06:25:04;8.60;99.90
4602;DHT22;2313;48.552;9.370;2022-12-20T06:27:30;8.70;99.90
4602;DHT22;2313;48.552;9.370;2022-12-20T06:29:55;8.60;99.90
4602;DHT22;2313;48.552;9.370;2022-12-20T06:32:21;8.60;99.90
4602;DHT22;2313;48.552;9.370;2022-12-20T06:34:46;8.70;99.90
4602;DHT22;2313;48.552;9.370;2022-12-20T06:37:12;8.70;99.90
4602;DHT22;2313;48.552;9.370;2022-12-20T06:39:38;8.60;99.90
4602;DHT22;2313;48.552;9.370;2022-12-20T06:42:03;8.60;99.90
4602;DHT22;2313;48.552;9.370;2022-12-20T06:44:29;8.60;99.90
4602;DHT22;2313;48.552;9.370;2022-12-20T06:46:55;8.60;99.90
4602;DHT22;2313;48.552;9.370;2022-12-20T06:49:20;8.70;99.90
4602;DHT22;2313;48.552;9.370;2022-12-20T06:51:47;8.70;99.90
4602;DHT22;2313;48.552;9.370;2022-12-20T06:54:12;8.80;99.90
4602;DHT22;2313;48.552;9.370;2022-12-20T06:56:38;8.80;99.90
4602;DHT22;2313;48.552;9.370;2022-12-20T06:59:04;8.80;99.90
4602;DHT22;2313;48.552;9.370;2022-12-20T07:01:30;8.80;99.90
4602;DHT22;2313;48.552;9.370;2022-12-20T07:03:56;8.70;99.90
4602;DHT22;2313;48.552;9.370;2022-12-20T07:06:21;8.70;99.90
4602;DHT22;2313;48.552;9.370;2022-12-20T07:08:47;8.80;99.90
4602;DHT22;2313;48.552;9.370;2022-12-20T07:11:13;8.70;99.90
4602;DHT22;2313;48.552;9.370;2022-12-20T07:13:38;8.80;99.90
4602;DHT22;2313;48.552;9.370;2022-12-20T07:16:04;8.80;99.90
4602;DHT22;2313;48.552;9.370;2022-12-20T07:18:30;8.70;99.90
4602;DHT22;2313;48.552;9.370;2022-12-20T07:21:01;8.70;99.90
4602;DHT22;2313;48.552;9.370;2022-12-20T07:23:27;8.70;99.90
4602;DHT22;2313;48.552;9.370;2022-12-20T07:25:54;8.10;99.90
4602;DHT22;2313;48.552;9.370;2022-12-20T07:28:20;7.30;99.90
4602;DHT22;2313;48.552;9.370;2022-12-20T07:30:46;6.60;99.90
4602;DHT22;2313;48.552;9.370;2022-12-20T07:33:11;6.10;99.90
4602;DHT22;2313;48.552;9.370;2022-12-20T07:35:37;5.80;99.90
4602;DHT22;2313;48.552;9.370;2022-12-20T07:38:02;5.50;99.90
4602;DHT22;2313;48.552;9.370;2022-12-20T07:40:28;5.30;99.90
4602;DHT22;2313;48.552;9.370;2022-12-20T07:42:54;5.10;99.90
4602;DHT22;2313;48.552;9.370;2022-12-20T07:45:19;5.10;99.90
4602;DHT22;2313;48.552;9.370;2022-12-20T07:47:45;5.60;99.90
4602;DHT22;2313;48.552;9.370;2022-12-20T07:50:10;6.20;99.90
4602;DHT22;2313;48.552;9.370;2022-12-20T07:52:36;6.30;99.90
4602;DHT22;2313;48.552;9.370;2022-12-20T07:55:04;6.10;99.90
4602;DHT22;2313;48.552;9.370;2022-12-20T07:57:46;5.80;99.90
4602;DHT22;2313;48.552;9.370;2022-12-20T08:00:14;5.80;99.90
4602;DHT22;2313;48.552;9.370;2022-12-20T08:02:55;6.00;99.90
4602;DHT22;2313;48.552;9.370;2022-12-20T08:05:23;5.90;99.90
4602;DHT22;2313;48.552;9.370;2022-12-20T08:07:51;5.50;99.90
4602;DHT22;2313;48.552;9.370;2022-12-20T08:10:17;5.30;99.90
4602;DHT22;2313;48.552;9.370;2022-12-20T08:12:44;5.20;99.90
4602;DHT22;2313;48.552;9.370;2022-12-20T08:15:11;5.10;99.90
4602;DHT22;2313;48.552;9.370;2022-12-20T08:17:37;5.00;99.90
4602;DHT22;2313;48.552;9.370;2022-12-20T08:20:03;4.90;99.90
4602;DHT22;2313;48.552;9.370;2022-12-20T08:22:30;4.80;99.90
4602;DHT22;2313;48.552;9.370;2022-12-20T08:24:55;4.80;99.90
4602;DHT22;2313;48.552;9.370;2022-12-20T08:27:21;4.90;99.90
4602;DHT22;2313;48.552;9.370;2022-12-20T08:29:47;4.90;99.90
4602;DHT22;2313;48.552;9.370;2022-12-20T08:32:13;4.90;99.90
4602;DHT22;2313;48.552;9.370;2022-12-20T08:34:39;5.00;99.90
4602;DHT22;2313;48.552;9.370;2022-12-20T08:37:04;5.00;99.90
4602;DHT22;2313;48.552;9.370;2022-12-20T08:39:30;5.00;99.90
4602;DHT22;2313;48.552;9.370;2022-12-20T08:41:56;5.10;99.90
4602;DHT22;2313;48.552;9.370;2022-12-20T08:44:21;5.10;99.90
4602;DHT22;2313;48.552;9.370;2022-12-20T08:46:47;5.20;99.90
4602;DHT22;2313;48.552;9.370;2022-12-20T08:49:12;5.50;99.90
4602;DHT22;2313;48.552;9.370;2022-12-20T08:51:38;6.10;99.90
4602;DHT22;2313;48.552;9.370;2022-12-20T08:54:04;6.50;99.90
4602;DHT22;2313;48.552;9.370;2022-12-20T08:56:29;6.80;99.90
4602;DHT22;2313;48.552;9.370;2022-12-20T08:58:55;7.10;99.90
4602;DHT22;2313;48.552;9.370;2022-12-20T09:01:20;7.20;99.90
4602;DHT22;2313;48.552;9.370;2022-12-20T09:03:47;7.30;99.90
4602;DHT22;2313;48.552;9.370;2022-12-20T09:06:18;7.50;99.90
4602;DHT22;2313;48.552;9.370;2022-12-20T09:08:45;7.60;99.90
4602;DHT22;2313;48.552;9.370;2022-12-20T09:13:39;8.10;99.90
4602;DHT22;2313;48.552;9.370;2022-12-20T09:16:06;8.10;99.90
4602;DHT22;2313;48.552;9.370;2022-12-20T09:18:33;8.40;99.90
4602;DHT22;2313;48.552;9.370;2022-12-20T09:21:03;8.50;99.90
4602;DHT22;2313;48.552;9.370;2022-12-20T09:23:30;8.60;99.90
4602;DHT22;2313;48.552;9.370;2022-12-20T09:26:11;8.70;99.90
4602;DHT22;2313;48.552;9.370;2022-12-20T09:28:38;8.60;99.90
4602;DHT22;2313;48.552;9.370;2022-12-20T09:31:06;8.70;99.90
4602;DHT22;2313;48.552;9.370;2022-12-20T09:33:33;8.80;99.90
4602;DHT22;2313;48.552;9.370;2022-12-20T09:35:59;9.10;99.90
4602;DHT22;2313;48.552;9.370;2022-12-20T09:38:26;9.20;99.90
4602;DHT22;2313;48.552;9.370;2022-12-20T09:40:57;9.10;99.90
4602;DHT22;2313;48.552;9.370;2022-12-20T09:43:24;9.10;99.90
4602;DHT22;2313;48.552;9.370;2022-12-20T09:45:53;9.10;99.90
4602;DHT22;2313;48.552;9.370;2022-12-20T09:48:22;9.40;99.90
4602;DHT22;2313;48.552;9.370;2022-12-20T09:56:09;9.80;99.90
4602;DHT22;2313;48.552;9.370;2022-12-20T09:58:58;10.00;99.90
4602;DHT22;2313;48.552;9.370;2022-12-20T10:01:25;10.20;99.90
4602;DHT22;2313;48.552;9.370;2022-12-20T10:03:51;10.30;99.90
4602;DHT22;2313;48.552;9.370;2022-12-20T10:06:39;10.30;99.90
4602;DHT22;2313;48.552;9.370;2022-12-20T10:15:20;10.10;99.90
4602;DHT22;2313;48.552;9.370;2022-12-20T10:18:13;10.20;99.90
4602;DHT22;2313;48.552;9.370;2022-12-20T10:25:54;10.30;99.90
4602;DHT22;2313;48.552;9.370;2022-12-20T10:28:28;10.40;99.90
4602;DHT22;2313;48.552;9.370;2022-12-20T10:30:58;10.40;99.90
4602;DHT22;2313;48.552;9.370;2022-12-20T10:33:26;10.40;99.90
4602;DHT22;2313;48.552;9.370;2022-12-20T10:35:52;10.50;99.90
4602;DHT22;2313;48.552;9.370;2022-12-20T10:38:18;10.50;99.90
4602;DHT22;2313;48.552;9.370;2022-12-20T10:43:21;10.60;99.90
4602;DHT22;2313;48.552;9.370;2022-12-20T10:46:05;10.60;99.90
4602;DHT22;2313;48.552;9.370;2022-12-20T10:48:36;10.60;99.90
4602;DHT22;2313;48.552;9.370;2022-12-20T10:53:35;10.60;99.90
4602;DHT22;2313;48.552;9.370;2022-12-20T10:56:15;10.60;99.90
4602;DHT22;2313;48.552;9.370;2022-12-20T10:58:42;10.70;99.90
4602;DHT22;2313;48.552;9.370;2022-12-20T11:01:18;10.70;99.90
4602;DHT22;2313;48.552;9.370;2022-12-20T11:03:54;10.60;99.90
4602;DHT22;2313;48.552;9.370;2022-12-20T11:06:23;10.70;99.90
4602;DHT22;2313;48.552;9.370;2022-12-20T11:08:49;10.20;99.90
4602;DHT22;2313;48.552;9.370;2022-12-20T11:11:21;10.00;99.90
4602;DHT22;2313;48.552;9.370;2022-12-20T11:13:48;9.80;99.90
4602;DHT22;2313;48.552;9.370;2022-12-20T11:29:15;8.40;99.90
4602;DHT22;2313;48.552;9.370;2022-12-20T11:34:48;7.80;99.90
4602;DHT22;2313;48.552;9.370;2022-12-20T11:37:28;7.60;99.90
4602;DHT22;2313;48.552;9.370;2022-12-20T11:40:03;7.40;99.90
4602;DHT22;2313;48.552;9.370;2022-12-20T11:42:53;7.50;99.90
4602;DHT22;2313;48.552;9.370;2022-12-20T11:45:50;7.50;99.90
4602;DHT22;2313;48.552;9.370;2022-12-20T11:51:19;7.60;99.90
4602;DHT22;2313;48.552;9.370;2022-12-20T11:54:22;7.90;99.90
4602;DHT22;2313;48.552;9.370;2022-12-20T11:56:51;7.90;99.90
4602;DHT22;2313;48.552;9.370;2022-12-20T12:02:01;8.00;99.90
4602;DHT22;2313;48.552;9.370;2022-12-20T12:04:40;8.30;99.90
4602;DHT22;2313;48.552;9.370;2022-12-20T12:07:17;8.00;99.90
4602;DHT22;2313;48.552;9.370;2022-12-20T12:12:43;7.90;99.90
4602;DHT22;2313;48.552;9.370;2022-12-20T12:17:51;8.50;99.90
4602;DHT22;2313;48.552;9.370;2022-12-20T12:23:15;9.10;99.90
4602;DHT22;2313;48.552;9.370;2022-12-20T12:25:43;8.60;99.90
4602;DHT22;2313;48.552;9.370;2022-12-20T12:28:13;8.20;99.90
4602;DHT22;2313;48.552;9.370;2022-12-20T12:30:43;8.00;99.90
4602;DHT22;2313;48.552;9.370;2022-12-20T12:33:18;7.80;99.90
4602;DHT22;2313;48.552;9.370;2022-12-20T12:38:44;7.60;99.90
4602;DHT22;2313;48.552;9.370;2022-12-20T12:46:44;7.70;99.90
4602;DHT22;2313;48.552;9.370;2022-12-20T12:49:19;7.70;99.90
4602;DHT22;2313;48.552;9.370;2022-12-20T12:51:52;7.80;99.90
4602;DHT22;2313;48.552;9.370;2022-12-20T12:54:22;7.80;99.90
4602;DHT22;2313;48.552;9.370;2022-12-20T12:56:57;7.70;99.90
4602;DHT22;2313;48.552;9.370;2022-12-20T13:04:54;7.70;99.90
4602;DHT22;2313;48.552;9.370;2022-12-20T13:13:01;7.60;99.90
4602;DHT22;2313;48.552;9.370;2022-12-20T13:20:34;7.50;99.90
4602;DHT22;2313;48.552;9.370;2022-12-20T13:25:39;7.50;99.90
4602;DHT22;2313;48.552;9.370;2022-12-20T13:43:47;7.30;99.90
4602;DHT22;2313;48.552;9.370;2022-12-20T13:46:20;7.40;99.90
4602;DHT22;2313;48.552;9.370;2022-12-20T13:51:23;7.50;99.90
4602;DHT22;2313;48.552;9.370;2022-12-20T13:53:53;7.50;99.90
4602;DHT22;2313;48.552;9.370;2022-12-20T13:58:56;7.40;99.90
4602;DHT22;2313;48.552;9.370;2022-12-20T14:01:24;7.40;99.90
4602;DHT22;2313;48.552;9.370;2022-12-20T14:03:50;7.40;99.90
4602;DHT22;2313;48.552;9.370;2022-12-20T14:06:18;7.40;99.90
4602;DHT22;2313;48.552;9.370;2022-12-20T14:08:49;7.40;99.90
4602;DHT22;2313;48.552;9.370;2022-12-20T14:11:18;7.40;99.90
4602;DHT22;2313;48.552;9.370;2022-12-20T14:13:53;7.40;99.90
4602;DHT22;2313;48.552;9.370;2022-12-20T14:16:19;7.30;99.90
4602;DHT22;2313;48.552;9.370;2022-12-20T14:18:49;7.30;99.90
4602;DHT22;2313;48.552;9.370;2022-12-20T14:21:16;7.40;99.90
4602;DHT22;2313;48.552;9.370;2022-12-20T14:23:48;7.40;99.90
4602;DHT22;2313;48.552;9.370;2022-12-20T14:28:53;8.60;99.90
4602;DHT22;2313;48.552;9.370;2022-12-20T14:31:40;9.20;99.90
4602;DHT22;2313;48.552;9.370;2022-12-20T14:36:37;9.90;99.90
4602;DHT22;2313;48.552;9.370;2022-12-20T14:42:12;9.40;99.90
4602;DHT22;2313;48.552;9.370;2022-12-20T14:44:38;9.30;99.90
4602;DHT22;2313;48.552;9.370;2022-12-20T14:49:39;8.70;99.90
4602;DHT22;2313;48.552;9.370;2022-12-20T14:52:20;8.50;99.90
4602;DHT22;2313;48.552;9.370;2022-12-20T14:54:49;8.20;99.90
4602;DHT22;2313;48.552;9.370;2022-12-20T14:57:37;8.00;99.90
4602;DHT22;2313;48.552;9.370;2022-12-20T15:08:27;7.40;99.90
4602;DHT22;2313;48.552;9.370;2022-12-20T15:13:52;7.30;99.90
4602;DHT22;2313;48.552;9.370;2022-12-20T15:16:26;7.20;99.90
4602;DHT22;2313;48.552;9.370;2022-12-20T15:18:56;7.10;99.90
4602;DHT22;2313;48.552;9.370;2022-12-20T15:21:34;7.00;99.90
4602;DHT22;2313;48.552;9.370;2022-12-20T15:24:03;6.90;99.90
4602;DHT22;2313;48.552;9.370;2022-12-20T15:26:32;6.90;99.90
4602;DHT22;2313;48.552;9.370;2022-12-20T15:28:58;6.80;99.90
4602;DHT22;2313;48.552;9.370;2022-12-20T15:31:24;6.80;99.90
4602;DHT22;2313;48.552;9.370;2022-12-20T15:33:51;6.80;99.90
4602;DHT22;2313;48.552;9.370;2022-12-20T15:36:24;6.80;99.90
4602;DHT22;2313;48.552;9.370;2022-12-20T15:38:51;6.80;99.90
4602;DHT22;2313;48.552;9.370;2022-12-20T15:41:29;6.80;99.90
4602;DHT22;2313;48.552;9.370;2022-12-20T15:43:58;6.80;99.90
4602;DHT22;2313;48.552;9.370;2022-12-20T15:46:24;6.70;99.90
4602;DHT22;2313;48.552;9.370;2022-12-20T15:48:50;6.70;99.90
4602;DHT22;2313;48.552;9.370;2022-12-20T15:53:46;6.70;99.90
4602;DHT22;2313;48.552;9.370;2022-12-20T15:56:17;6.60;99.90
4602;DHT22;2313;48.552;9.370;2022-12-20T15:58:44;6.60;99.90
4602;DHT22;2313;48.552;9.370;2022-12-20T16:01:13;6.70;99.90
4602;DHT22;2313;48.552;9.370;2022-12-20T16:03:40;6.50;99.90
4602;DHT22;2313;48.552;9.370;2022-12-20T16:06:07;6.50;99.90
4602;DHT22;2313;48.552;9.370;2022-12-20T16:08:34;6.50;99.90
4602;DHT22;2313;48.552;9.370;2022-12-20T16:10:59;6.60;99.90
4602;DHT22;2313;48.552;9.370;2022-12-20T16:13:25;6.70;99.90
4602;DHT22;2313;48.552;9.370;2022-12-20T16:15:51;7.20;99.90
4602;DHT22;2313;48.552;9.370;2022-12-20T16:18:17;7.60;99.90
4602;DHT22;2313;48.552;9.370;2022-12-20T16:20:43;8.00;99.90
4602;DHT22;2313;48.552;9.370;2022-12-20T16:23:18;8.20;99.90
4602;DHT22;2313;48.552;9.370;2022-12-20T16:25:44;8.30;99.90
4602;DHT22;2313;48.552;9.370;2022-12-20T16:28:10;8.40;99.90
4602;DHT22;2313;48.552;9.370;2022-12-20T16:30:35;8.50;99.90
4602;DHT22;2313;48.552;9.370;2022-12-20T16:33:01;8.50;99.90
4602;DHT22;2313;48.552;9.370;2022-12-20T16:35:30;8.80;99.90
4602;DHT22;2313;48.552;9.370;2022-12-20T16:38:00;9.10;99.90
4602;DHT22;2313;48.552;9.370;2022-12-20T16:40:28;9.20;99.90
4602;DHT22;2313;48.552;9.370;2022-12-20T16:42:55;9.40;99.90
4602;DHT22;2313;48.552;9.370;2022-12-20T16:45:25;9.30;99.90
4602;DHT22;2313;48.552;9.370;2022-12-20T16:47:51;9.20;99.90
4602;DHT22;2313;48.552;9.370;2022-12-20T16:50:19;9.10;99.90
4602;DHT22;2313;48.552;9.370;2022-12-20T16:52:45;9.10;99.90
4602;DHT22;2313;48.552;9.370;2022-12-20T16:55:15;9.10;99.90
4602;DHT22;2313;48.552;9.370;2022-12-20T16:57:43;9.10;99.90
4602;DHT22;2313;48.552;9.370;2022-12-20T17:00:15;9.10;99.90
4602;DHT22;2313;48.552;9.370;2022-12-20T17:02:41;9.20;99.90
4602;DHT22;2313;48.552;9.370;2022-12-20T17:05:35;9.40;99.90
4602;DHT22;2313;48.552;9.370;2022-12-20T17:08:02;9.40;99.90
4602;DHT22;2313;48.552;9.370;2022-12-20T17:10:28;9.50;99.90
4602;DHT22;2313;48.552;9.370;2022-12-20T17:12:55;9.60;99.90
4602;DHT22;2313;48.552;9.370;2022-12-20T17:15:27;9.60;99.90
4602;DHT22;2313;48.552;9.370;2022-12-20T17:17:53;9.60;99.90
4602;DHT22;2313;48.552;9.370;2022-12-20T17:20:21;9.60;99.90
4602;DHT22;2313;48.552;9.370;2022-12-20T17:22:48;9.50;99.90
4602;DHT22;2313;48.552;9.370;2022-12-20T17:25:34;9.40;99.90
4602;DHT22;2313;48.552;9.370;2022-12-20T17:27:59;9.40;99.90
4602;DHT22;2313;48.552;9.370;2022-12-20T17:30:25;9.20;99.90
4602;DHT22;2313;48.552;9.370;2022-12-20T17:32:52;9.00;99.90
4602;DHT22;2313;48.552;9.370;2022-12-20T17:35:24;9.00;99.90
4602;DHT22;2313;48.552;9.370;2022-12-20T17:37:50;8.70;99.90
4602;DHT22;2313;48.552;9.370;2022-12-20T17:40:18;8.60;99.90
4602;DHT22;2313;48.552;9.370;2022-12-20T17:42:44;8.70;99.90
4602;DHT22;2313;48.552;9.370;2022-12-20T17:45:31;8.40;99.90
4602;DHT22;2313;48.552;9.370;2022-12-20T17:47:59;8.30;99.90
4602;DHT22;2313;48.552;9.370;2022-12-20T17:50:26;8.20;99.90
4602;DHT22;2313;48.552;9.370;2022-12-20T17:52:52;8.20;99.90
4602;DHT22;2313;48.552;9.370;2022-12-20T17:55:26;8.20;99.90
4602;DHT22;2313;48.552;9.370;2022-12-20T17:57:53;8.20;99.90
4602;DHT22;2313;48.552;9.370;2022-12-20T18:00:28;8.20;99.90
4602;DHT22;2313;48.552;9.370;2022-12-20T18:02:54;8.20;99.90
4602;DHT22;2313;48.552;9.370;2022-12-20T18:05:21;8.10;99.90
4602;DHT22;2313;48.552;9.370;2022-12-20T18:07:52;8.00;99.90
4602;DHT22;2313;48.552;9.370;2022-12-20T18:10:18;8.00;99.90
4602;DHT22;2313;48.552;9.370;2022-12-20T18:12:44;8.00;99.90
4602;DHT22;2313;48.552;9.370;2022-12-20T18:15:10;7.90;99.90
4602;DHT22;2313;48.552;9.370;2022-12-20T18:17:36;7.90;99.90
4602;DHT22;2313;48.552;9.370;2022-12-20T18:20:04;7.80;99.90
4602;DHT22;2313;48.552;9.370;2022-12-20T18:22:32;7.60;99.90
4602;DHT22;2313;48.552;9.370;2022-12-20T18:24:58;7.60;99.90
4602;DHT22;2313;48.552;9.370;2022-12-20T18:27:24;7.50;99.90
4602;DHT22;2313;48.552;9.370;2022-12-20T18:29:49;7.40;99.90
4602;DHT22;2313;48.552;9.370;2022-12-20T18:32:15;7.40;99.90
4602;DHT22;2313;48.552;9.370;2022-12-20T18:34:40;7.50;99.90
4602;DHT22;2313;48.552;9.370;2022-12-20T18:37:06;7.50;99.90
4602;DHT22;2313;48.552;9.370;2022-12-20T18:39:32;7.50;99.90
4602;DHT22;2313;48.552;9.370;2022-12-20T18:41:57;7.80;99.90
4602;DHT22;2313;48.552;9.370;2022-12-20T18:44:23;7.90;99.90
4602;DHT22;2313;48.552;9.370;2022-12-20T18:46:48;8.60;99.90